Time;durP1;ratioP1;P1;durP2;ratioP2;P2;SDS_P1;SDS_P2;PMS_P1;PMS_P2;Temp;Humidity;BMP_temperature;BMP_pressure;BME280_temperature;BME280_humidity;BME280_pressure;Samples;Min_cycle;Max_cycle;Signal;HPM_P1;HPM_P2
2024/02/08 00:02:06;;;;;;;48.25;31.83;;;;;;;8.00;100.00;97385.50;5058912;28;20126;-70
2024/02/08 00:04:34;;;;;;;48.20;34.53;;;;;;;7.80;100.00;97382.41;5060647;28;20039;-70
2024/02/08 00:07:00;;;;;;;40.25;28.45;;;;;;;7.44;100.00;97441.88;5059382;28;20482;-71
2024/02/08 00:09:25;;;;;;;40.08;28.98;;;;;;;8.10;100.00;97502.97;5060968;28;20024;-72
2024/02/08 00:11:51;;;;;;;45.08;30.05;;;;;;;7.53;100.00;97485.13;5060085;28;20418;-73
2024/02/08 00:14:16;;;;;;;45.83;29.17;;;;;;;8.09;100.00;97567.91;5059274;28;20028;-70
2024/02/08 00:16:42;;;;;;;40.20;26.73;;;;;;;7.74;100.00;97617.13;5062979;28;20053;-73
2024/02/08 00:19:07;;;;;;;39.40;25.50;;;;;;;7.76;100.00;97595.88;5061593;28;20029;-70
2024/02/08 00:21:35;;;;;;;42.00;26.67;;;;;;;7.51;100.00;97509.69;5058016;28;20033;-70
2024/02/08 00:24:01;;;;;;;40.03;25.23;;;;;;;7.33;100.00;97499.78;5061306;28;20059;-69
2024/02/08 00:26:26;;;;;;;39.38;26.63;;;;;;;7.12;100.00;97465.56;5057608;28;20135;-71
2024/02/08 00:28:51;;;;;;;42.45;29.00;;;;;;;7.17;100.00;97461.09;5058662;28;20472;-70
2024/02/08 00:31:19;;;;;;;44.05;28.38;;;;;;;6.84;100.00;97436.78;5059663;28;20094;-70
2024/02/08 00:33:46;;;;;;;45.60;28.90;;;;;;;7.85;100.00;97514.47;5060970;28;20029;-73
2024/02/08 00:36:14;;;;;;;46.17;29.95;;;;;;;7.26;100.00;97463.13;5058784;28;20125;-71
2024/02/08 00:38:40;;;;;;;45.53;30.05;;;;;;;8.08;100.00;97467.59;5056318;28;20028;-70
2024/02/08 00:41:06;;;;;;;45.00;29.63;;;;;;;8.20;100.00;97428.94;5056812;28;20021;-70
2024/02/08 00:43:31;;;;;;;43.08;28.23;;;;;;;7.42;100.00;97390.63;5057032;28;20017;-71
2024/02/08 00:45:57;;;;;;;42.22;28.83;;;;;;;7.83;100.00;97503.63;5061627;28;20488;-71
2024/02/08 00:48:22;;;;;;;45.13;29.55;;;;;;;8.16;100.00;97450.25;5054948;28;20028;-72
2024/02/08 00:50:48;;;;;;;46.28;30.55;;;;;;;7.45;100.00;97408.09;5056855;28;20037;-71
2024/02/08 00:53:13;;;;;;;47.63;30.65;;;;;;;8.03;100.00;97434.19;5054371;28;20057;-68
2024/02/08 00:55:43;;;;;;;50.67;31.75;;;;;;;8.20;100.00;97463.56;5061202;28;20050;-68
2024/02/08 00:58:11;;;;;;;61.08;36.25;;;;;;;7.64;100.00;97396.06;5060491;28;20134;-69
2024/02/08 01:00:37;;;;;;;54.55;36.20;;;;;;;7.84;100.00;97534.81;5059525;28;20036;-70
2024/02/08 01:03:04;;;;;;;70.15;41.72;;;;;;;8.15;100.00;97435.19;5059501;28;20024;-70
2024/02/08 01:05:30;;;;;;;69.43;43.22;;;;;;;7.52;100.00;97367.25;5065560;28;20048;-70
2024/02/08 01:07:56;;;;;;;64.30;40.42;;;;;;;7.73;100.00;97459.53;5056728;28;20703;-72
2024/02/08 01:10:21;;;;;;;56.53;37.20;;;;;;;7.11;100.00;97366.25;5056123;28;20025;-70
2024/02/08 01:12:47;;;;;;;58.53;37.20;;;;;;;7.14;100.00;97271.84;5055552;28;20029;-70
2024/02/08 01:15:14;;;;;;;54.67;36.13;;;;;;;7.32;100.00;97427.41;5056164;28;20036;-69
2024/02/08 01:17:41;;;;;;;50.05;33.60;;;;;;;8.02;100.00;97313.69;5063000;28;20471;-70
2024/02/08 01:20:07;;;;;;;42.30;29.88;;;;;;;8.03;100.00;97375.19;5058086;28;20025;-71
2024/02/08 01:22:32;;;;;;;38.22;27.15;;;;;;;7.61;100.00;97439.19;5053617;28;20564;-70
2024/02/08 01:24:59;;;;;;;44.88;26.90;;;;;;;6.77;100.00;97351.38;5060515;28;20033;-70
2024/02/08 01:27:24;;;;;;;42.08;26.27;;;;;;;7.23;100.00;97491.09;5059194;28;20040;-69
2024/02/08 01:29:50;;;;;;;32.67;23.20;;;;;;;6.92;100.00;97312.66;5059003;28;20538;-70
2024/02/08 01:32:17;;;;;;;38.10;24.30;;;;;;;7.21;100.00;97443.16;5059416;28;20039;-70
2024/02/08 01:34:46;;;;;;;33.67;22.23;;;;;;;6.92;100.00;97235.19;5060339;28;20090;-70
2024/02/08 01:37:15;;;;;;;29.00;21.05;;;;;;;7.51;100.00;97307.50;5056479;28;20032;-69
2024/02/08 01:39:43;;;;;;;29.02;20.48;;;;;;;7.13;100.00;97344.25;5060442;28;20032;-70
2024/02/08 01:42:13;;;;;;;33.80;21.40;;;;;;;7.13;100.00;97372.03;5057903;28;20041;-69
2024/02/08 01:44:45;;;;;;;34.88;21.08;;;;;;;6.93;100.00;97095.44;5060056;28;20039;-70
2024/02/08 01:47:10;;;;;;;;;;;;;;;7.65;100.00;97248.53;5058943;28;20059;-70
2024/02/08 01:49:36;;;;;;;26.90;19.25;;;;;;;7.26;100.00;97266.06;5051731;28;19912;-69
2024/02/08 01:52:03;;;;;;;32.13;19.23;;;;;;;6.97;100.00;97207.97;5059442;28;20120;-69
2024/02/08 01:54:29;;;;;;;26.77;18.25;;;;;;;7.03;100.00;97061.16;5052992;28;20033;-74
2024/02/08 01:56:58;;;;;;;28.58;19.38;;;;;;;7.67;100.00;97181.00;5057579;28;20052;-70
2024/02/08 01:59:24;;;;;;;29.35;18.95;;;;;;;7.25;100.00;97072.47;5056054;28;20040;-69
2024/02/08 02:01:51;;;;;;;29.52;20.15;;;;;;;7.43;100.00;97211.09;5058143;28;20036;-69
2024/02/08 02:04:19;;;;;;;27.23;19.08;;;;;;;6.81;100.00;97088.59;5060595;28;20024;-70
2024/02/08 02:06:48;;;;;;;29.63;19.33;;;;;;;7.10;100.00;97060.78;5059861;28;20385;-70
2024/02/08 02:09:30;;;;;;;31.95;19.63;;;;;;;6.53;100.00;96991.94;5060685;28;20028;-71
2024/02/08 02:12:08;;;;;;;28.67;18.67;;;;;;;7.36;100.00;97249.47;5056509;28;20032;-69
2024/02/08 02:14:35;;;;;;;30.05;18.60;;;;;;;7.48;100.00;97198.19;5058390;28;20097;-70
2024/02/08 02:17:18;;;;;;;29.20;17.98;;;;;;;7.38;100.00;97224.94;5056963;28;20028;-73
2024/02/08 02:19:46;;;;;;;31.10;18.05;;;;;;;7.19;100.00;97151.16;5061036;28;20035;-69
2024/02/08 02:22:13;;;;;;;27.98;18.35;;;;;;;7.31;100.00;97002.16;5057563;28;20471;-69
2024/02/08 02:24:40;;;;;;;29.25;18.45;;;;;;;7.75;100.00;97093.69;5060927;28;20059;-69
2024/02/08 02:27:07;;;;;;;32.75;18.75;;;;;;;6.89;100.00;97057.84;5056006;28;20032;-71
2024/02/08 02:29:34;;;;;;;33.65;21.45;;;;;;;6.94;100.00;97104.63;5055634;28;20601;-69
2024/02/08 02:32:00;;;;;;;32.03;19.83;;;;;;;7.38;100.00;97214.81;5056528;28;20040;-69
2024/02/08 02:34:30;;;;;;;30.33;18.20;;;;;;;6.22;100.00;97116.47;5053161;28;20116;-70
2024/02/08 02:36:58;;;;;;;26.25;16.70;;;;;;;7.10;100.00;97144.13;5055150;28;20461;-69
2024/02/08 02:39:26;;;;;;;25.13;16.33;;;;;;;6.27;100.00;97156.59;5057055;28;20033;-69
2024/02/08 02:41:54;;;;;;;24.55;15.93;;;;;;;6.67;100.00;97156.75;5054644;28;20075;-70
2024/02/08 02:44:23;;;;;;;22.85;16.23;;;;;;;6.67;100.00;97255.19;5059154;28;20074;-69
2024/02/08 02:46:49;;;;;;;26.00;17.17;;;;;;;6.67;100.00;97197.13;5054612;28;20487;-72
2024/02/08 02:49:17;;;;;;;31.70;18.85;;;;;;;5.93;100.00;97029.09;5054230;28;20060;-70
2024/02/08 02:51:48;;;;;;;29.55;20.05;;;;;;;6.65;100.00;97137.53;5058158;28;20033;-71
2024/02/08 02:54:14;;;;;;;28.83;19.30;;;;;;;5.62;100.00;96856.19;5057724;28;20032;-70
2024/02/08 02:56:42;;;;;;;31.15;19.15;;;;;;;5.79;100.00;96966.84;5059123;28;20036;-70
2024/02/08 02:59:07;;;;;;;36.03;19.58;;;;;;;6.54;100.00;96981.72;5055288;28;20103;-70
2024/02/08 03:01:33;;;;;;;32.42;19.23;;;;;;;6.67;100.00;97010.38;5058104;28;20123;-70
2024/02/08 03:03:59;;;;;;;32.10;19.75;;;;;;;5.88;100.00;96889.94;5054844;28;20029;-70
2024/02/08 03:06:26;;;;;;;27.90;18.33;;;;;;;6.48;100.00;96919.03;5055100;28;20491;-71
2024/02/08 03:08:52;;;;;;;28.08;18.52;;;;;;;6.28;100.00;96927.00;5059851;28;20025;-70
2024/02/08 03:11:17;;;;;;;27.58;17.50;;;;;;;6.23;100.00;96746.63;5055467;28;20066;-71
2024/02/08 03:13:45;;;;;;;24.58;17.70;;;;;;;5.94;100.00;96766.88;5061936;28;20040;-70
2024/02/08 03:16:14;;;;;;;26.90;16.50;;;;;;;6.52;100.00;96826.31;5058882;28;20025;-70
2024/02/08 03:18:43;;;;;;;25.85;16.92;;;;;;;6.89;100.00;96733.00;5062144;28;20446;-70
2024/02/08 03:21:21;;;;;;;26.30;17.88;;;;;;;6.49;100.00;96834.91;5066184;28;20036;-70
2024/02/08 03:23:48;;;;;;;24.98;18.27;;;;;;;6.37;100.00;96820.53;5056391;28;20029;-70
2024/02/08 03:26:15;;;;;;;28.20;16.75;;;;;;;6.59;100.00;96681.22;5058672;28;20025;-70
2024/02/08 03:28:42;;;;;;;25.13;16.85;;;;;;;6.74;100.00;96681.03;5057256;28;20092;-70
2024/02/08 03:31:09;;;;;;;26.52;17.05;;;;;;;6.03;100.00;96846.19;5060064;28;20052;-71
2024/02/08 03:33:35;;;;;;;26.02;17.73;;;;;;;5.64;100.00;96745.25;5056910;28;20028;-71
2024/02/08 03:36:06;;;;;;;34.47;18.35;;;;;;;5.42;100.00;96742.41;5063117;28;20028;-70
2024/02/08 03:38:33;;;;;;;29.85;17.48;;;;;;;5.43;100.00;96659.19;5061479;28;20534;-71
2024/02/08 03:40:58;;;;;;;28.50;16.48;;;;;;;5.43;100.00;96671.00;5058577;28;20132;-71
2024/02/08 03:43:26;;;;;;;29.10;17.70;;;;;;;5.39;100.00;96626.75;5058770;28;20111;-71
2024/02/08 03:45:55;;;;;;;33.65;19.30;;;;;;;5.82;100.00;96734.06;5057355;28;20277;-70
2024/02/08 03:48:23;;;;;;;24.23;16.92;;;;;;;4.82;100.00;96682.19;5057474;28;20056;-71
2024/02/08 03:50:52;;;;;;;29.95;16.95;;;;;;;5.55;100.00;96749.13;5054457;28;20454;-70
2024/02/08 03:53:20;;;;;;;23.40;16.75;;;;;;;5.39;100.00;96635.09;5052606;28;20037;-69
2024/02/08 03:55:51;;;;;;;24.38;17.23;;;;;;;6.14;100.00;96690.00;5055251;28;20083;-70
2024/02/08 03:58:18;;;;;;;28.38;17.35;;;;;;;4.89;100.00;96655.75;5058248;28;20052;-75
2024/02/08 04:00:46;;;;;;;30.73;17.63;;;;;;;5.24;100.00;96643.59;5057921;28;20123;-72
2024/02/08 04:03:33;;;;;;;28.10;17.65;;;;;;;5.90;100.00;96711.75;5060244;28;20025;-70
2024/02/08 04:05:59;;;;;;;30.23;18.30;;;;;;;5.88;100.00;96747.09;5059724;28;20036;-71
2024/02/08 04:54:32;;;;;;;25.42;18.42;;;;;;;5.31;100.00;97333.94;5052578;28;20549;-70
2024/02/08 04:56:59;;;;;;;31.17;19.73;;;;;;;5.29;100.00;97463.25;5053612;28;20280;-73
2024/02/08 04:59:26;;;;;;;29.63;18.88;;;;;;;5.80;100.00;97585.91;5053755;28;20048;-70
2024/02/08 05:01:53;;;;;;;32.15;20.80;;;;;;;5.97;100.00;97774.22;5053504;28;20028;-69
2024/02/08 05:04:20;;;;;;;30.60;19.52;;;;;;;6.33;100.00;97923.91;5047965;28;20510;-69
2024/02/08 05:06:46;;;;;;;29.83;20.05;;;;;;;5.84;100.00;98168.91;5049875;28;20037;-69
2024/02/08 05:09:15;;;;;;;27.38;19.70;;;;;;;4.61;100.00;97991.38;5052426;28;20037;-70
2024/02/08 05:11:43;;;;;;;29.75;18.90;;;;;;;6.04;100.00;98395.91;5049145;28;20032;-70
2024/02/08 05:14:09;;;;;;;32.53;20.58;;;;;;;5.89;100.00;98567.91;5052539;28;20038;-69
2024/02/08 05:16:37;;;;;;;27.75;19.15;;;;;;;5.18;100.00;98628.00;5052732;28;20033;-70
2024/02/08 05:19:03;;;;;;;32.28;22.08;;;;;;;5.40;100.00;98779.38;5052306;28;20052;-69
2024/02/08 05:21:32;;;;;;;33.33;20.58;;;;;;;6.15;100.00;99037.09;5050235;28;20063;-67
2024/02/08 05:24:01;;;;;;;27.95;20.42;;;;;;;5.32;100.00;99043.28;5052489;28;20025;-68
2024/02/08 05:26:26;;;;;;;28.65;20.52;;;;;;;6.09;100.00;99202.06;5050314;28;20116;-69
2024/02/08 05:28:57;;;;;;;32.05;20.10;;;;;;;5.13;100.00;99240.13;5048365;28;20029;-68
2024/02/08 05:31:25;;;;;;;29.73;20.65;;;;;;;5.03;100.00;99416.63;5050067;28;20037;-69
2024/02/08 05:33:52;;;;;;;30.88;20.20;;;;;;;5.21;100.00;99510.38;5050219;28;20060;-68
2024/02/08 05:36:17;;;;;;;28.60;19.17;;;;;;;5.79;100.00;99616.22;5049171;28;20059;-69
2024/02/08 05:38:56;;;;;;;27.80;18.80;;;;;;;5.49;100.00;99714.13;5055200;28;20041;-69
2024/02/08 05:41:22;;;;;;;31.75;19.83;;;;;;;5.44;100.00;99769.66;5047922;28;20476;-69
2024/02/08 05:43:51;;;;;;;26.33;19.10;;;;;;;5.85;100.00;99791.88;5053394;28;20094;-69
2024/02/08 05:46:30;;;;;;;28.88;19.50;;;;;;;5.88;100.00;99799.44;5056660;28;20039;-69
2024/02/08 05:49:04;;;;;;;37.03;24.00;;;;;;;5.46;100.00;99767.94;5056679;28;20033;-68
2024/02/08 05:51:35;;;;;;;33.25;23.60;;;;;;;6.12;100.00;99878.16;5054403;28;20033;-68
2024/02/08 05:54:06;;;;;;;34.88;21.58;;;;;;;6.17;100.00;99849.50;5056146;28;20483;-69
2024/02/08 05:56:39;;;;;;;40.08;25.42;;;;;;;6.00;100.00;99817.75;5057061;28;20469;-68
2024/02/08 05:59:05;;;;;;;37.22;27.55;;;;;;;6.43;100.00;99918.19;5056909;28;20048;-69
2024/02/08 06:01:36;;;;;;;51.45;33.20;;;;;;;5.18;100.00;99728.75;5058881;28;20051;-70
2024/02/08 06:04:03;;;;;;;51.23;33.73;;;;;;;6.34;100.00;99906.50;5057654;28;20096;-70
2024/02/08 06:06:34;;;;;;;60.70;40.97;;;;;;;5.69;100.00;99856.75;5060598;28;20446;-71
2024/02/08 06:09:08;;;;;;;79.10;50.45;;;;;;;6.05;100.00;99938.81;5059059;28;20063;-70
2024/02/08 06:11:37;;;;;;;65.43;42.80;;;;;;;5.71;100.00;99852.53;5053488;28;20125;-69
2024/02/08 06:14:22;;;;;;;63.80;41.30;;;;;;;6.52;100.00;99843.16;5057136;28;20507;-70
2024/02/08 06:16:53;;;;;;;51.50;36.63;;;;;;;6.48;100.00;99623.56;5053328;28;20087;-69
2024/02/08 06:19:21;;;;;;;48.53;31.50;;;;;;;6.28;100.00;99419.47;5060683;28;20120;-70
2024/02/08 06:21:47;;;;;;;44.53;29.42;;;;;;;6.26;100.00;99339.63;5061366;28;20032;-69
2024/02/08 06:24:44;;;;;;;47.10;29.38;;;;;;;5.95;100.00;99397.41;5062525;28;20059;-73
2024/02/08 06:27:01;;;;;;;31.63;22.67;;;;;;;5.35;100.00;99353.13;5057998;28;20040;-69
2024/02/08 06:29:38;;;;;;;26.02;19.75;;;;;;;5.99;100.00;99353.63;5054251;28;20029;-69
2024/02/08 06:35:20;;;;;;;36.28;26.60;;;;;;;6.76;100.00;99177.69;5059739;28;20029;-68
2024/02/08 06:38:03;;;;;;;38.83;26.10;;;;;;;6.82;100.00;99190.16;5055172;28;20029;-70
2024/02/08 06:46:09;;;;;;;51.13;33.75;;;;;;;6.88;100.00;99357.56;5061564;28;20032;-70
2024/02/08 07:37:13;;;;;;;45.75;26.67;;;;;;;6.46;100.00;99373.66;5060775;28;20041;-70
2024/02/08 07:38:14;;;;;;;31.85;21.63;;;;;;;10.60;100.00;99648.53;5047667;28;20490;-70
2024/02/08 07:40:43;;;;;;;30.40;21.92;;;;;;;11.12;100.00;99615.31;5059853;28;20040;-70
2024/02/08 07:45:44;;;;;;;28.77;21.98;;;;;;;10.66;100.00;99705.06;5057149;28;20037;-70
2024/02/08 07:48:27;;;;;;;28.95;21.10;;;;;;;10.70;100.00;99515.13;5058267;28;20514;-70
2024/02/08 07:50:53;;;;;;;26.90;19.65;;;;;;;10.69;100.00;99597.38;5055188;28;20028;-70
2024/02/08 07:53:34;;;;;;;30.27;20.75;;;;;;;11.57;100.00;99615.34;5056011;28;20036;-70
2024/02/08 07:58:48;;;;;;;29.25;20.85;;;;;;;10.75;100.00;99775.97;5056328;28;20044;-70
2024/02/08 08:01:18;;;;;;;29.63;20.55;;;;;;;11.22;100.00;99701.44;5060443;28;20083;-70
2024/02/08 08:03:49;;;;;;;30.00;17.67;;;;;;;11.12;100.00;99738.25;5058816;28;20037;-70
2024/02/08 08:06:16;;;;;;;24.60;16.15;;;;;;;11.52;100.00;99655.41;5056348;28;20119;-69
2024/02/08 08:08:43;;;;;;;25.85;17.58;;;;;;;10.69;100.00;99620.25;5059893;28;20442;-70
2024/02/08 08:11:15;;;;;;;22.85;15.38;;;;;;;10.78;100.00;99630.09;5057742;28;20094;-70
2024/02/08 08:14:09;;;;;;;27.65;19.00;;;;;;;11.22;100.00;99606.47;5060399;28;20071;-70
2024/02/08 08:19:12;;;;;;;25.33;16.63;;;;;;;11.39;100.00;99560.03;5062390;28;20032;-70
2024/02/08 08:24:26;;;;;;;30.30;19.13;;;;;;;11.41;100.00;99520.09;5061906;28;20427;-69
2024/02/08 08:27:25;;;;;;;21.52;15.85;;;;;;;12.35;100.00;99613.94;5064076;28;20035;-71
2024/02/08 08:29:52;;;;;;;26.42;17.27;;;;;;;11.77;100.00;99689.28;5054379;28;20411;-72
2024/02/08 08:38:13;;;;;;;18.40;11.93;;;;;;;11.34;100.00;99652.66;5058871;28;20081;-71
2024/02/08 08:40:39;;;;;;;18.45;12.80;;;;;;;11.93;100.00;99711.56;5056217;28;20043;-70
2024/02/08 08:43:26;;;;;;;22.08;13.18;;;;;;;12.26;100.00;99721.38;5056697;28;20041;-69
2024/02/08 08:45:59;;;;;;;17.90;13.15;;;;;;;12.15;100.00;99711.56;5058201;28;20032;-69
2024/02/08 08:48:30;;;;;;;16.98;12.43;;;;;;;12.37;100.00;99703.91;5056483;28;20036;-70
2024/02/08 08:51:10;;;;;;;19.90;13.37;;;;;;;12.05;100.00;99651.66;5055336;28;20028;-74
2024/02/08 08:53:43;;;;;;;26.40;13.60;;;;;;;11.89;100.00;99615.78;5061469;28;20475;-69
2024/02/08 08:56:10;;;;;;;21.00;12.50;;;;;;;12.25;100.00;99704.41;5062957;28;20555;-72
2024/02/08 08:58:39;;;;;;;22.02;12.57;;;;;;;12.16;100.00;99685.22;5071790;28;20036;-70
2024/02/08 09:01:15;;;;;;;17.35;12.30;;;;;;;12.72;100.00;99805.34;5060888;28;20044;-73
2024/02/08 09:04:10;;;;;;;25.17;14.13;;;;;;;12.95;100.00;99829.06;5049553;28;20108;-70
2024/02/08 09:06:38;;;;;;;23.70;15.15;;;;;;;12.81;100.00;99849.22;5060215;28;20028;-70
2024/02/08 09:09:27;;;;;;;22.98;15.30;;;;;;;12.89;100.00;99831.84;5053744;28;20025;-70
2024/02/08 09:11:57;;;;;;;23.83;14.98;;;;;;;12.83;100.00;99833.84;5060456;28;20426;-69
2024/02/08 09:14:30;;;;;;;27.83;15.85;;;;;;;12.56;100.00;99777.06;5057298;28;20422;-70
2024/02/08 09:16:57;;;;;;;26.95;15.70;;;;;;;13.07;100.00;99855.03;5055627;28;20039;-70
2024/02/08 09:19:31;;;;;;;21.95;15.25;;;;;;;12.94;100.00;99806.16;5057786;28;20673;-71
2024/02/08 09:21:59;;;;;;;20.95;13.50;;;;;;;13.02;100.00;99751.38;5059799;28;20463;-70
2024/02/08 09:24:26;;;;;;;19.73;12.98;;;;;;;13.58;100.00;99873.31;5061809;28;20039;-69
2024/02/08 09:29:38;;;;;;;24.77;14.48;;;;;;;12.85;100.00;99799.72;5058033;28;20036;-70
2024/02/08 09:32:18;;;;;;;26.75;17.20;;;;;;;13.62;100.00;99872.28;5058215;28;20504;-70
2024/02/08 09:34:46;;;;;;;18.98;13.90;;;;;;;13.06;100.00;99808.25;5057153;28;20079;-70
2024/02/08 09:37:13;;;;;;;27.60;15.35;;;;;;;13.68;100.00;99911.19;5057126;28;20475;-70
2024/02/08 09:42:37;;;;;;;23.48;14.48;;;;;;;13.17;100.00;99816.31;5053641;28;20036;-69
2024/02/08 09:45:42;;;;;;;20.25;14.68;;;;;;;13.22;100.00;99781.19;5053639;28;20537;-71
2024/02/08 09:48:06;;;;;;;17.77;13.13;;;;;;;13.79;100.00;99859.63;5058826;28;20120;-72
2024/02/08 09:50:47;;;;;;;21.15;14.55;;;;;;;14.01;100.00;99798.16;5055920;28;20294;-72
2024/02/08 09:53:29;;;;;;;20.40;14.70;;;;;;;14.07;100.00;99708.44;5051289;28;20458;-71
2024/02/08 09:55:59;;;;;;;;;;;;;;;14.34;100.00;99687.53;5058218;28;20484;-71
2024/02/08 09:58:33;;;;;;;21.33;13.07;;;;;;;14.03;100.00;99735.88;5058554;28;20350;-68
2024/02/08 10:01:00;;;;;;;18.50;12.38;;;;;;;13.13;100.00;99625.91;5058578;28;20422;-69
2024/02/08 10:03:34;;;;;;;18.20;12.15;;;;;;;13.47;100.00;99648.22;5056626;28;20414;-70
2024/02/08 10:06:13;;;;;;;18.10;12.50;;;;;;;13.77;100.00;99736.22;5054214;28;20025;-69
2024/02/08 10:09:08;;;;;;;19.60;11.80;;;;;;;13.34;100.00;99784.97;5052855;28;20111;-69
2024/02/08 10:11:43;;;;;;;17.52;12.32;;;;;;;13.50;100.00;99796.19;5053737;28;20040;-70
2024/02/08 10:14:25;;;;;;;18.80;12.20;;;;;;;13.79;100.00;99699.47;5055744;28;20119;-69
2024/02/08 10:16:53;;;;;;;19.90;12.57;;;;;;;13.67;100.00;99648.94;4700619;28;10000301;-70
2024/02/08 10:19:28;;;;;;;15.65;12.45;;;;;;;13.72;100.00;99641.06;5052342;28;20043;-71
2024/02/08 10:22:00;;;;;;;18.73;12.40;;;;;;;14.27;100.00;99659.75;5052302;28;20033;-70
2024/02/08 10:27:20;;;;;;;16.80;12.45;;;;;;;14.33;100.00;99623.69;5055740;28;20120;-71
2024/02/08 10:30:07;;;;;;;17.13;12.32;;;;;;;14.16;100.00;99591.25;5060039;28;20033;-70
2024/02/08 10:32:34;;;;;;;22.73;13.25;;;;;;;14.79;100.00;99564.19;5057704;28;20111;-73
2024/02/08 10:35:20;;;;;;;17.38;12.82;;;;;;;13.97;100.00;99443.94;5060691;28;20028;-70
2024/02/08 10:37:55;;;;;;;20.90;13.15;;;;;;;15.14;100.00;99427.44;5055566;28;20025;-70
2024/02/08 10:40:32;;;;;;;17.35;12.38;;;;;;;14.57;100.00;99394.78;5058907;28;20091;-70
2024/02/08 10:43:17;;;;;;;15.15;11.13;;;;;;;15.42;100.00;99396.03;5054481;28;20033;-69
2024/02/08 10:45:53;;;;;;;19.05;11.07;;;;;;;15.51;100.00;99415.97;5058377;28;20725;-69
2024/02/08 10:48:21;;;;;;;16.45;11.80;;;;;;;15.11;100.00;99475.44;5057401;28;20801;-69
2024/02/08 10:50:49;;;;;;;16.20;12.05;;;;;;;14.80;100.00;99379.00;5060379;28;20529;-69
2024/02/08 10:53:16;;;;;;;17.10;11.75;;;;;;;15.08;100.00;99493.53;5061709;28;20040;-69
2024/02/08 10:55:56;;;;;;;15.50;11.45;;;;;;;15.09;100.00;99479.81;5054679;28;20053;-69
2024/02/08 10:58:51;;;;;;;15.30;11.68;;;;;;;15.04;100.00;99449.34;5055140;28;20039;-70
2024/02/08 11:01:32;;;;;;;15.85;11.52;;;;;;;15.04;100.00;99433.97;5058080;28;20135;-70
2024/02/08 11:04:00;;;;;;;21.83;15.68;;;;;;;14.70;100.00;99365.06;5056434;28;20112;-70
2024/02/08 11:06:28;;;;;;;20.40;13.10;;;;;;;15.66;100.00;99269.03;5062030;28;20082;-70
2024/02/08 11:09:14;;;;;;;16.67;12.63;;;;;;;15.77;100.00;99179.50;5056597;28;20033;-70
2024/02/08 11:11:45;;;;;;;19.60;12.50;;;;;;;16.08;100.00;99193.81;5056263;28;20044;-69
2024/02/08 11:14:17;;;;;;;;;;;;;;;16.10;100.00;99213.28;5059378;28;20084;-70
2024/02/08 11:16:47;;;;;;;16.27;11.55;;;;;;;15.32;100.00;99129.31;5061533;28;19923;-69
2024/02/08 11:19:17;;;;;;;15.35;11.05;;;;;;;16.05;100.00;99176.88;5063131;28;20487;-69
2024/02/08 11:21:43;;;;;;;15.85;10.88;;;;;;;16.46;100.00;99057.00;5059716;28;20104;-69
2024/02/08 11:24:13;;;;;;;17.85;11.95;;;;;;;16.25;100.00;98973.78;5067738;28;20466;-70
2024/02/08 11:26:49;;;;;;;12.30;8.63;;;;;;;16.44;100.00;98969.06;5061912;28;20030;-70
2024/02/08 11:29:21;;;;;;;18.65;8.90;;;;;;;16.84;100.00;98887.56;5063551;28;20484;-70
2024/02/08 11:31:46;;;;;;;13.57;9.00;;;;;;;16.95;100.00;98748.16;5061072;28;20025;-72
2024/02/08 11:34:15;;;;;;;12.77;9.70;;;;;;;16.58;100.00;98661.97;5059333;28;20040;-70
2024/02/08 11:36:52;;;;;;;12.05;8.65;;;;;;;16.54;100.00;98640.84;5061441;28;20419;-70
2024/02/08 11:39:30;;;;;;;13.63;9.45;;;;;;;17.03;100.00;98496.78;5061408;28;20044;-70
2024/02/08 11:42:00;;;;;;;14.00;9.20;;;;;;;17.25;100.00;98474.41;5054560;28;20393;-71
2024/02/08 11:44:28;;;;;;;11.73;8.43;;;;;;;17.28;100.00;98384.28;5059592;28;20036;-70
2024/02/08 11:47:00;;;;;;;12.02;8.80;;;;;;;17.48;100.00;98415.22;5057209;28;20035;-70
2024/02/08 11:49:35;;;;;;;15.35;10.13;;;;;;;16.90;100.00;98327.47;5058852;28;20029;-69
2024/02/08 11:52:06;;;;;;;14.18;10.30;;;;;;;17.27;100.00;98218.25;5060593;28;20040;-69
2024/02/08 11:54:37;;;;;;;11.25;9.20;;;;;;;17.41;100.00;98285.66;5058077;28;20029;-69
2024/02/08 11:57:08;;;;;;;13.38;9.32;;;;;;;18.11;100.00;98302.75;5059692;28;20033;-69
2024/02/08 11:59:36;;;;;;;14.80;9.73;;;;;;;17.73;100.00;98374.56;5058918;28;20039;-69
2024/02/08 12:02:07;;;;;;;13.05;8.70;;;;;;;18.17;100.00;98270.53;5057298;28;20071;-69
2024/02/08 12:04:34;;;;;;;14.13;9.32;;;;;;;17.86;100.00;98338.38;5059834;28;20171;-69
2024/02/08 12:07:04;;;;;;;15.20;8.98;;;;;;;17.63;100.00;98368.56;5061471;28;20037;-70
2024/02/08 12:09:31;;;;;;;11.93;7.88;;;;;;;18.08;100.00;98479.69;5055931;28;20036;-69
2024/02/08 12:11:58;;;;;;;13.63;10.07;;;;;;;17.01;100.00;98426.75;5060243;28;20037;-70
2024/02/08 12:14:26;;;;;;;13.13;9.25;;;;;;;17.57;100.00;98636.34;5057940;28;20029;-71
2024/02/08 12:16:57;;;;;;;13.43;9.63;;;;;;;18.02;100.00;98580.47;5057121;28;20029;-69
2024/02/08 12:19:24;;;;;;;16.23;9.60;;;;;;;17.93;100.00;98525.47;5061351;28;20025;-71
2024/02/08 12:21:56;;;;;;;11.02;9.07;;;;;;;17.85;100.00;98730.13;5056580;28;20291;-70
2024/02/08 12:24:23;;;;;;;14.73;8.75;;;;;;;18.04;100.00;98666.06;5055882;28;20419;-69
2024/02/08 12:26:57;;;;;;;13.25;8.63;;;;;;;18.84;100.00;98611.38;5057284;28;20502;-69
2024/02/08 12:29:25;;;;;;;11.48;8.15;;;;;;;18.66;100.00;98573.47;5056363;28;20040;-70
2024/02/08 12:31:57;;;;;;;13.80;8.55;;;;;;;18.82;100.00;98566.06;5057447;28;20028;-70
2024/02/08 12:34:31;;;;;;;;;;;;;;;19.02;100.00;98772.13;5056394;28;20059;-69
2024/02/08 12:37:05;;;;;;;13.23;8.15;;;;;;;18.92;100.00;98819.34;5055986;28;20003;-71
2024/02/08 12:39:38;;;;;;;14.25;8.70;;;;;;;19.62;100.00;98773.16;5059922;28;20483;-67
2024/02/08 12:42:07;;;;;;;13.07;8.35;;;;;;;19.37;100.00;98827.72;5057629;28;20024;-70
2024/02/08 12:44:36;;;;;;;15.63;10.82;;;;;;;18.70;100.00;98783.38;5059462;28;20612;-71
2024/02/08 12:47:06;;;;;;;12.75;7.40;;;;;;;19.27;100.00;98924.75;5057812;28;20036;-70
2024/02/08 12:49:33;;;;;;;11.20;7.20;;;;;;;18.30;100.00;98895.56;5061912;28;20036;-69
2024/02/08 12:52:03;;;;;;;12.13;9.63;;;;;;;19.42;100.00;98964.78;5058886;28;20064;-69
2024/02/08 12:54:29;;;;;;;18.25;12.77;;;;;;;19.42;100.00;98908.06;5056259;28;20032;-70
2024/02/08 12:57:08;;;;;;;11.38;7.93;;;;;;;19.45;100.00;98952.47;5059339;28;20426;-70
2024/02/08 12:59:42;;;;;;;10.93;7.72;;;;;;;19.70;100.00;99016.59;5051623;28;20036;-69
2024/02/08 13:02:17;;;;;;;12.75;8.77;;;;;;;19.58;100.00;99011.59;5050571;28;20041;-70
2024/02/08 13:04:44;;;;;;;14.50;11.60;;;;;;;19.52;100.00;98989.72;5059899;28;20044;-69
2024/02/08 13:07:16;;;;;;;12.35;9.07;;;;;;;20.11;100.00;99020.13;5056717;28;20029;-69
2024/02/08 13:09:44;;;;;;;14.80;9.23;;;;;;;20.16;100.00;99044.66;5059405;28;20063;-71
2024/02/08 13:12:15;;;;;;;14.73;9.10;;;;;;;20.00;100.00;99164.72;5058028;28;20032;-70
2024/02/08 13:14:57;;;;;;;12.27;9.38;;;;;;;19.61;100.00;99246.06;5055715;28;20021;-69
2024/02/08 13:17:25;;;;;;;;;;;;;;;19.96;100.00;99183.97;5059697;28;20507;-71
2024/02/08 13:19:55;;;;;;;14.63;10.35;;;;;;;19.74;100.00;99076.50;5057575;28;19916;-70
2024/02/08 13:22:24;;;;;;;10.68;8.98;;;;;;;19.67;100.00;99294.56;5059951;28;20037;-70
2024/02/08 13:24:51;;;;;;;12.05;8.10;;;;;;;20.20;100.00;99254.34;5060752;28;20094;-70
2024/02/08 13:27:30;;;;;;;9.55;7.70;;;;;;;20.36;100.00;99258.16;5056564;28;20024;-70
2024/02/08 13:29:58;;;;;;;12.07;8.50;;;;;;;20.10;100.00;99140.66;5057049;28;20029;-70
2024/02/08 13:32:29;;;;;;;13.77;9.95;;;;;;;20.08;100.00;99198.50;5057938;28;20119;-70
2024/02/08 13:35:00;;;;;;;42.35;19.75;;;;;;;19.94;100.00;99204.75;5053420;28;20123;-69
2024/02/08 13:37:29;;;;;;;9.07;6.30;;;;;;;19.78;100.00;99441.66;5065075;28;20119;-71
2024/02/08 13:40:03;;;;;;;7.32;5.90;;;;;;;20.24;100.00;99384.81;5060582;28;20025;-70